Time;durP1;ratioP1;P1;durP2;ratioP2;P2;SDS_P1;SDS_P2;PMS_P1;PMS_P2;Temp;Humidity;BMP_temperature;BMP_pressure;BME280_temperature;BME280_humidity;BME280_pressure;Samples;Min_cycle;Max_cycle;Signal;HPM_P1;HPM_P2
2022/12/09 00:01:28;;;;;;;;;55.75;40.25;;;;;5.17;68.70;100051.47;5076100;28;45663;-57
2022/12/09 00:03:54;;;;;;;;;48.00;38.50;;;;;4.94;69.32;100012.50;5077724;28;45417;-57
2022/12/09 00:06:21;;;;;;;;;48.25;37.25;;;;;5.21;68.84;100050.00;5077556;27;45349;-56
2022/12/09 00:08:47;;;;;;;;;45.25;36.50;;;;;4.99;69.32;100004.63;5077692;27;45368;-56
2022/12/09 00:11:12;;;;;;;;;42.25;32.25;;;;;5.27;68.61;100043.78;5075813;28;46470;-56
2022/12/09 00:13:38;;;;;;;;;44.00;38.25;;;;;5.26;69.44;100033.97;5077298;27;45415;-55
2022/12/09 00:16:10;;;;;;;;;46.75;36.00;;;;;5.03;69.36;99996.91;5076243;28;45372;-57
2022/12/09 00:18:36;;;;;;;;;36.60;32.60;;;;;5.19;69.24;100039.34;5077467;27;45352;-58
2022/12/09 00:21:21;;;;;;;;;43.50;32.75;;;;;5.19;69.50;100036.63;5077011;27;45420;-57
2022/12/09 00:23:47;;;;;;;;;41.40;33.20;;;;;5.20;68.99;100030.16;5077313;27;45383;-56
2022/12/09 00:26:13;;;;;;;;;34.50;30.50;;;;;5.21;68.53;100033.69;5092695;27;45453;-55
2022/12/09 00:28:38;;;;;;;;;41.50;33.75;;;;;5.20;68.80;100035.59;5077153;27;45333;-56
2022/12/09 00:31:04;;;;;;;;;41.25;28.25;;;;;5.23;69.69;100031.63;5076664;27;46719;-55
2022/12/09 00:33:30;;;;;;;;;40.25;33.25;;;;;5.27;68.82;100041.94;5073998;27;45875;-57
2022/12/09 00:36:06;;;;;;;;;30.00;24.60;;;;;5.24;68.77;100023.25;5049732;28;45301;-57
2022/12/09 00:38:31;;;;;;;;;40.20;32.00;;;;;4.89;69.36;99963.28;5076285;27;45453;-56
2022/12/09 00:40:57;;;;;;;;;39.75;30.25;;;;;5.27;68.82;100024.75;5076584;27;46022;-57
2022/12/09 00:43:22;;;;;;;;;35.00;29.00;;;;;5.18;68.98;100018.59;5076903;27;45340;-57
2022/12/09 00:45:48;;;;;;;;;42.75;35.00;;;;;5.22;68.93;100017.19;5077336;27;45467;-57
2022/12/09 00:48:13;;;;;;;;;33.75;30.00;;;;;5.22;69.88;100017.19;5077683;27;45384;-58
2022/12/09 00:50:39;;;;;;;;;39.00;29.25;;;;;5.17;69.10;100019.63;5077046;28;45403;-58
2022/12/09 00:53:05;;;;;;;;;34.00;29.00;;;;;5.07;69.74;100010.97;5075248;28;45577;-55
2022/12/09 00:55:30;;;;;;;;;38.75;31.75;;;;;5.08;69.70;99996.31;5075537;28;45270;-58
2022/12/09 00:57:56;;;;;;;;;40.75;32.75;;;;;5.11;68.65;100010.38;5077412;27;45732;-57
2022/12/09 01:00:21;;;;;;;;;31.25;26.75;;;;;5.01;69.18;100007.13;5076866;27;45533;-56
2022/12/09 01:02:47;;;;;;;;;50.00;39.25;;;;;5.06;69.96;100006.56;5076581;27;45286;-56
2022/12/09 01:05:12;;;;;;;;;46.25;38.75;;;;;4.88;70.54;99984.22;5076921;27;45245;-56
2022/12/09 01:07:38;;;;;;;;;34.50;29.25;;;;;4.97;70.73;99995.78;5077129;28;45420;-53
2022/12/09 01:10:04;;;;;;;;;58.75;39.25;;;;;4.98;71.23;99994.78;5075124;28;47766;-56
2022/12/09 01:12:29;;;;;;;;;32.00;28.50;;;;;5.01;71.38;100004.41;5076533;27;45694;-57
2022/12/09 01:14:55;;;;;;;;;42.75;36.75;;;;;5.00;70.96;100000.84;5076525;28;45605;-56
2022/12/09 01:17:20;;;;;;;;;49.25;40.50;;;;;5.00;71.36;99998.13;5076882;27;45346;-54
2022/12/09 01:19:46;;;;;;;;;40.50;32.75;;;;;4.81;70.95;99960.69;5075056;28;47289;-57
2022/12/09 01:22:11;;;;;;;;;50.75;41.25;;;;;5.06;70.83;99998.41;5091954;27;45348;-54
2022/12/09 01:24:37;;;;;;;;;42.50;24.50;;;;;5.07;70.49;100005.53;5076790;28;45411;-57
2022/12/09 01:27:02;;;;;;;;;42.75;34.75;;;;;5.01;70.46;99993.53;5076506;27;45458;-56
2022/12/09 01:29:28;;;;;;;;;47.00;38.75;;;;;5.01;71.51;99991.66;5076498;28;46010;-57
2022/12/09 01:31:54;;;;;;;;;47.50;39.25;;;;;5.13;70.68;100005.56;5091764;27;45382;-55
2022/12/09 01:34:19;;;;;;;;;49.20;40.60;;;;;5.06;71.19;99993.78;5075243;28;45466;-56
2022/12/09 01:36:47;;;;;;;;;44.50;38.25;;;;;5.09;71.39;99995.28;5076706;28;45613;-57
2022/12/09 01:39:13;;;;;;;;;52.25;40.00;;;;;5.14;70.72;100006.44;5075698;27;45587;-52
2022/12/09 01:41:38;;;;;;;;;57.40;39.60;;;;;5.07;71.66;100000.91;5075867;27;45460;-57
2022/12/09 01:44:07;;;;;;;;;56.25;45.25;;;;;4.80;71.19;99957.13;5074408;28;45325;-56
2022/12/09 01:46:32;;;;;;;;;45.75;38.00;;;;;5.06;71.01;100001.94;5076339;27;45483;-56
2022/12/09 01:48:58;;;;;;;;;54.75;38.50;;;;;4.88;71.98;100007.84;5075121;28;46344;-56
2022/12/09 01:51:23;;;;;;;;;42.25;34.25;;;;;4.08;71.73;99878.16;5073955;28;45456;-56
2022/12/09 01:53:49;;;;;;;;;52.00;36.50;;;;;4.78;72.02;99993.69;5075619;27;45410;-56
2022/12/09 01:56:18;;;;;;;;;48.50;41.00;;;;;4.78;72.01;100007.28;5074516;28;45420;-57
2022/12/09 01:58:44;;;;;;;;;49.00;39.60;;;;;4.54;72.17;99960.41;5074442;28;45325;-57
2022/12/09 02:01:09;;;;;;;;;54.50;41.25;;;;;4.83;72.21;100000.25;5074694;28;45689;-56
2022/12/09 02:03:35;;;;;;;;;51.25;38.00;;;;;4.77;71.92;100005.63;5074480;28;45288;-55
2022/12/09 02:06:01;;;;;;;;;47.50;40.25;;;;;4.83;71.61;100002.13;5075862;27;45681;-58
2022/12/09 02:08:26;;;;;;;;;56.50;42.00;;;;;4.91;72.28;99995.75;5075431;27;46352;-55
2022/12/09 02:11:13;;;;;;;;;56.50;42.00;;;;;4.92;71.93;100003.72;5075805;28;45539;-57
2022/12/09 02:13:57;;;;;;;;;57.50;41.00;;;;;4.52;72.43;99959.75;5073895;28;45365;-59
2022/12/09 02:16:24;;;;;;;;;44.75;38.75;;;;;4.76;72.52;100002.06;5055361;28;45432;-58
2022/12/09 02:19:15;;;;;;;;;43.80;34.40;;;;;4.75;72.87;99994.91;5053959;28;45805;-56
2022/12/09 02:21:45;;;;;;;;;35.60;35.60;;;;;4.81;72.06;99990.63;5053682;28;45400;-56
2022/12/09 02:24:19;;;;;;;;;44.80;35.80;;;;;4.82;71.86;99992.28;5054214;28;45381;-55
2022/12/09 02:26:50;;;;;;;;;46.25;38.75;;;;;4.81;72.05;99985.19;5037334;28;45481;-58
2022/12/09 02:30:03;;;;;;;;;52.80;40.60;;;;;4.74;71.75;99987.81;5051053;28;46256;-56
2022/12/09 02:33:05;;;;;;;;;47.40;37.00;;;;;4.64;72.14;99985.41;5065359;27;45386;-53
2022/12/09 02:35:49;;;;;;;;;56.80;39.20;;;;;4.60;72.34;99970.53;5022552;27;45417;-54
2022/12/09 02:38:29;;;;;;;;;55.00;40.75;;;;;4.77;72.19;99976.56;5074140;28;45825;-56
2022/12/09 02:41:06;;;;;;;;;54.00;40.50;;;;;4.64;72.77;99965.53;5073552;28;46221;-55
2022/12/09 02:43:38;;;;;;;;;48.20;39.40;;;;;4.56;72.40;99945.59;5073803;28;45405;-56
2022/12/09 02:46:05;;;;;;;;;55.00;42.60;;;;;4.79;72.04;99973.66;5074235;28;45316;-56
2022/12/09 02:48:36;;;;;;;;;57.75;39.50;;;;;4.83;72.25;99969.50;5057312;28;45408;-57
2022/12/09 02:51:06;;;;;;;;;53.50;42.75;;;;;4.75;73.20;99962.28;5073679;28;46171;-57
2022/12/09 02:53:32;;;;;;;;;43.20;36.80;;;;;4.70;72.47;99968.31;5056429;28;45468;-54
2022/12/09 02:55:57;;;;;;;;;52.75;38.75;;;;;4.72;72.46;99965.41;5073409;28;45519;-56
2022/12/09 02:58:23;;;;;;;;;43.75;33.00;;;;;4.71;73.03;99966.44;5056933;28;45413;-55
2022/12/09 03:00:50;;;;;;;;;46.25;33.00;;;;;4.65;73.02;99959.06;5072985;28;45848;-57
2022/12/09 03:03:16;;;;;;;;;46.80;38.80;;;;;4.69;73.27;99982.94;5073379;28;45436;-55
2022/12/09 03:05:58;;;;;;;;;41.00;33.50;;;;;4.65;72.43;99970.78;5073594;28;45422;-57
2022/12/09 03:08:33;;;;;;;;;51.50;41.00;;;;;4.68;72.41;99978.56;5073516;28;45499;-55
2022/12/09 03:11:06;;;;;;;;;64.25;42.50;;;;;4.44;71.91;99937.09;5073522;28;46699;-56
2022/12/09 03:13:37;;;;;;;;;56.20;41.60;;;;;4.64;72.60;99973.69;5056565;28;45442;-56
2022/12/09 03:16:19;;;;;;;;;41.00;33.80;;;;;4.31;72.48;99932.34;5039853;28;45315;-53
2022/12/09 03:18:47;;;;;;;;;48.50;34.75;;;;;4.57;71.77;99974.47;5053174;28;45417;-57
2022/12/09 03:21:13;;;;;;;;;47.00;34.60;;;;;4.53;71.76;99966.88;5052651;28;46797;-55
2022/12/09 03:23:39;;;;;;;;;38.60;36.40;;;;;4.54;72.59;99965.84;5052919;28;45688;-56
2022/12/09 03:26:04;;;;;;;;;38.75;35.00;;;;;4.53;72.25;99966.88;5053172;28;45417;-57
2022/12/09 03:28:33;;;;;;;;;33.25;24.25;;;;;4.54;71.83;99969.38;5036432;28;45427;-58
2022/12/09 03:31:01;;;;;;;;;47.25;34.50;;;;;4.56;71.13;99969.22;5036381;28;46687;-58
2022/12/09 03:33:26;;;;;;;;;38.60;28.80;;;;;4.38;71.27;99943.28;5052842;28;45398;-55
2022/12/09 03:35:54;;;;;;;;;39.25;27.75;;;;;4.51;71.20;99958.91;5036478;28;45808;-56
2022/12/09 03:38:20;;;;;;;;;41.00;34.40;;;;;4.56;71.22;99971.91;5053245;28;45823;-56
2022/12/09 03:40:47;;;;;;;;;40.80;32.20;;;;;4.57;71.16;99962.72;5052792;28;45356;-57
2022/12/09 03:43:15;;;;;;;;;49.00;34.80;;;;;4.47;71.19;99963.03;5036148;28;45411;-57
2022/12/09 03:45:40;;;;;;;;;32.60;21.40;;;;;4.39;71.77;99950.44;5052939;28;45403;-56
2022/12/09 03:48:06;;;;;;;;;36.25;27.00;;;;;4.47;71.02;99953.03;5053051;28;45515;-56
2022/12/09 03:50:34;;;;;;;;;28.75;26.25;;;;;4.23;71.58;99918.88;5053161;28;45664;-54
2022/12/09 03:53:09;;;;;;;;;32.80;27.60;;;;;4.38;71.43;99951.44;5035963;28;45358;-55
2022/12/09 03:55:41;;;;;;;;;37.00;30.60;;;;;4.42;71.39;99952.75;5036549;28;45482;-58
2022/12/09 03:58:06;;;;;;;;;44.75;34.00;;;;;4.44;71.25;99950.66;5054072;28;45214;-55
2022/12/09 04:00:35;;;;;;;;;49.75;33.25;;;;;4.42;70.61;99944.59;5052949;28;45277;-56
2022/12/09 04:03:00;;;;;;;;;39.40;34.60;;;;;4.43;71.36;99950.88;5054100;28;45192;-58
2022/12/09 04:05:26;;;;;;;;;45.25;30.25;;;;;4.27;71.21;99949.22;5054274;28;45352;-55
2022/12/09 04:07:51;;;;;;;;;34.00;26.75;;;;;4.19;71.44;99933.88;5054440;28;45369;-57
2022/12/09 04:10:17;;;;;;;;;34.50;29.25;;;;;4.32;70.70;99944.06;5052461;28;45439;-58
2022/12/09 04:12:42;;;;;;;;;38.25;29.25;;;;;4.30;70.70;99922.53;5054414;28;45452;-57
2022/12/09 04:15:08;;;;;;;;;40.25;36.50;;;;;4.36;71.11;99926.34;5066324;28;45488;-54
2022/12/09 04:17:34;;;;;;;;;37.20;28.60;;;;;4.38;69.86;99926.16;5077840;27;45467;-56
2022/12/09 04:19:59;;;;;;;;;41.00;34.75;;;;;4.27;70.42;99892.19;5077533;27;46474;-55
2022/12/09 04:22:25;;;;;;;;;42.00;28.00;;;;;4.44;69.87;99928.09;5076890;27;45730;-55
2022/12/09 04:24:50;;;;;;;;;40.75;33.50;;;;;4.39;70.06;99928.69;5077824;27;45420;-56
2022/12/09 04:27:16;;;;;;;;;37.25;31.00;;;;;4.18;70.50;99886.84;5077579;27;45629;-57
2022/12/09 04:29:41;;;;;;;;;36.75;27.75;;;;;4.42;69.95;99917.41;5077089;27;46056;-55
2022/12/09 04:32:07;;;;;;;;;31.75;29.75;;;;;4.29;70.03;99901.81;5077458;27;45681;-59
2022/12/09 04:34:32;;;;;;;;;33.50;29.75;;;;;4.37;69.66;99919.03;5075840;28;45317;-56
2022/12/09 04:36:58;;;;;;;;;36.75;28.75;;;;;4.43;69.84;99924.53;5076694;28;45151;-55
2022/12/09 04:39:23;;;;;;;;;39.75;29.00;;;;;4.45;69.12;99922.50;5076787;28;46263;-55
2022/12/09 04:41:49;;;;;;;;;33.00;31.25;;;;;4.29;69.62;99918.13;5076940;28;45615;-55
2022/12/09 04:44:14;;;;;;;;;37.50;32.50;;;;;4.03;70.33;99886.03;5076795;27;45395;-55
2022/12/09 04:46:40;;;;;;;;;34.00;33.50;;;;;4.15;70.00;99914.41;5092709;27;45546;-58
2022/12/09 04:49:05;;;;;;;;;40.25;35.00;;;;;3.86;70.49;99878.13;5076877;28;45380;-56
2022/12/09 04:51:31;;;;;;;;;39.50;34.25;;;;;4.12;69.86;99913.94;5075671;28;45299;-57
2022/12/09 04:53:56;;;;;;;;;41.75;36.50;;;;;4.01;70.24;99896.25;5077052;27;45316;-57
2022/12/09 04:56:22;;;;;;;;;34.75;26.75;;;;;4.23;70.02;99927.03;5076935;27;45388;-59
2022/12/09 04:58:48;;;;;;;;;28.50;24.75;;;;;4.29;70.55;99922.69;5076884;28;46037;-55
2022/12/09 05:01:15;;;;;;;;;37.75;32.50;;;;;4.31;69.83;99920.63;5076717;28;45321;-56
2022/12/09 05:03:41;;;;;;;;;39.60;33.80;;;;;4.30;69.16;99921.66;5076556;27;45288;-57
2022/12/09 05:06:11;;;;;;;;;47.00;35.75;;;;;4.32;69.67;99931.31;5075942;28;45346;-56
2022/12/09 05:08:36;;;;;;;;;39.40;31.40;;;;;4.14;69.60;99914.56;5076129;27;46599;-58
2022/12/09 05:11:02;;;;;;;;;43.50;33.50;;;;;3.87;68.91;99876.22;5058443;28;45408;-56
2022/12/09 05:13:27;;;;;;;;;42.75;34.75;;;;;3.88;70.01;99903.19;5075440;28;45445;-57
2022/12/09 05:16:04;;;;;;;;;32.00;28.50;;;;;4.14;69.79;99925.44;5061629;27;45669;-57
2022/12/09 05:18:29;;;;;;;;;40.60;35.40;;;;;4.09;69.54;99922.44;5055877;28;47153;-59
2022/12/09 05:20:55;;;;;;;;;33.75;27.50;;;;;4.07;69.52;99922.66;5038001;28;45341;-56
2022/12/09 05:23:20;;;;;;;;;31.75;29.25;;;;;4.07;69.46;99925.38;5055907;28;45394;-57
2022/12/09 05:25:46;;;;;;;;;43.75;34.00;;;;;4.10;69.66;99930.41;5056313;28;45540;-58
2022/12/09 05:28:11;;;;;;;;;33.50;26.75;;;;;4.06;69.05;99931.84;5056101;28;45632;-57
2022/12/09 05:30:37;;;;;;;;;44.50;34.75;;;;;4.07;69.82;99930.81;5055849;28;45374;-55
2022/12/09 05:33:03;;;;;;;;;33.75;29.25;;;;;4.07;69.68;99936.22;5055615;28;45166;-56
2022/12/09 05:35:28;;;;;;;;;35.25;32.00;;;;;4.04;69.79;99942.88;5055364;28;45248;-55
2022/12/09 05:37:54;;;;;;;;;32.50;31.00;;;;;4.11;69.59;99934.81;5055503;28;45310;-56
2022/12/09 05:40:20;;;;;;;;;36.25;27.00;;;;;4.15;68.44;99932.56;5055638;28;45414;-57
2022/12/09 05:42:45;;;;;;;;;27.25;21.00;;;;;4.13;69.11;99937.34;5055781;28;45358;-58
2022/12/09 05:45:11;;;;;;;;;33.75;27.25;;;;;4.20;68.82;99941.84;5055736;28;45397;-55
2022/12/09 05:47:36;;;;;;;;;22.25;22.00;;;;;4.25;67.83;99935.81;5055861;28;45551;-60
2022/12/09 05:50:05;;;;;;;;;33.00;25.00;;;;;4.25;68.60;99943.13;5055313;28;45279;-57
2022/12/09 05:52:32;;;;;;;;;37.40;30.20;;;;;4.19;67.27;99934.72;5055770;28;45454;-55
2022/12/09 05:54:58;;;;;;;;;32.00;25.50;;;;;3.93;68.05;99929.78;5054488;28;46143;-57
2022/12/09 05:57:23;;;;;;;;;34.00;25.75;;;;;3.82;68.16;99941.94;5055328;28;45471;-58
2022/12/09 05:59:49;;;;;;;;;32.25;30.50;;;;;3.87;68.75;99942.22;5055383;28;45878;-56
2022/12/09 06:02:15;;;;;;;;;29.00;26.00;;;;;3.78;68.43;99943.34;5055567;28;45350;-58
2022/12/09 06:04:40;;;;;;;;;25.25;23.50;;;;;3.84;68.63;99942.59;5054349;28;45801;-57
2022/12/09 06:07:06;;;;;;;;;39.00;27.25;;;;;3.90;67.62;99947.28;5055034;28;46063;-59
2022/12/09 06:09:31;;;;;;;;;28.50;24.50;;;;;3.74;67.79;99931.19;5055304;28;45396;-58
2022/12/09 06:11:57;;;;;;;;;30.25;23.00;;;;;3.89;68.15;99950.19;5054256;28;45428;-56
2022/12/09 06:14:22;;;;;;;;;25.00;22.00;;;;;3.90;68.32;99952.72;5055925;28;45406;-54
2022/12/09 06:16:48;;;;;;;;;33.75;29.00;;;;;3.82;67.48;99957.38;5053405;27;45920;-56
2022/12/09 06:19:14;;;;;;;;;30.75;20.25;;;;;3.82;68.61;99958.25;5042553;28;45473;-55
2022/12/09 06:21:39;;;;;;;;;31.00;25.00;;;;;3.82;67.67;99960.94;5054984;28;45464;-57
2022/12/09 06:24:06;;;;;;;;;35.50;27.00;;;;;3.49;67.53;99902.47;5055133;28;45593;-57
2022/12/09 06:26:31;;;;;;;;;23.80;20.60;;;;;3.80;67.73;99963.84;5054989;28;45743;-56
2022/12/09 06:28:58;;;;;;;;;37.50;29.25;;;;;3.77;67.54;99972.38;5053893;28;45381;-56
2022/12/09 06:31:23;;;;;;;;;31.80;25.20;;;;;3.68;67.84;99953.66;5054839;28;45427;-58
2022/12/09 06:33:49;;;;;;;;;31.25;25.50;;;;;3.76;66.99;99967.13;5053931;28;45431;-58
2022/12/09 06:36:14;;;;;;;;;35.25;24.25;;;;;3.80;68.09;99974.72;5053822;28;45438;-55
2022/12/09 06:38:40;;;;;;;;;27.00;22.00;;;;;3.80;67.63;99972.00;5054892;28;45305;-56
2022/12/09 06:41:09;;;;;;;;;31.25;29.00;;;;;3.49;66.77;99935.03;5053675;28;45446;-55
2022/12/09 06:43:35;;;;;;;;;32.50;28.75;;;;;3.65;67.68;99971.16;5055063;28;45378;-57
2022/12/09 06:46:01;;;;;;;;;26.25;23.75;;;;;3.65;66.96;99966.56;5054567;28;46165;-54
2022/12/09 06:48:26;;;;;;;;;31.25;23.00;;;;;3.55;67.35;99959.69;5055295;28;45337;-56
2022/12/09 06:50:51;;;;;;;;;31.25;21.75;;;;;3.56;66.01;99970.38;5053635;28;45431;-57
2022/12/09 06:53:17;;;;;;;;;27.00;21.50;;;;;3.53;67.01;99962.63;5055180;28;45308;-57
2022/12/09 06:55:43;;;;;;;;;31.50;22.75;;;;;3.32;66.88;99925.34;5054766;28;46462;-56
2022/12/09 06:58:08;;;;;;;;;30.00;25.25;;;;;3.49;67.18;99964.88;5053300;28;45275;-56
2022/12/09 07:00:34;;;;;;;;;25.00;23.25;;;;;3.51;66.29;99962.81;5054681;28;45302;-52
2022/12/09 07:02:59;;;;;;;;;27.00;22.50;;;;;3.25;66.68;99925.22;5055189;28;45578;-55
2022/12/09 07:05:25;;;;;;;;;29.50;25.00;;;;;3.31;66.82;99951.63;5054464;28;45654;-57
2022/12/09 07:07:51;;;;;;;;;36.75;25.25;;;;;3.15;66.56;99933.63;5055027;28;45330;-57
2022/12/09 07:10:16;;;;;;;;;29.75;25.75;;;;;3.34;66.43;99975.69;5053258;28;45383;-55
2022/12/09 07:12:42;;;;;;;;;24.75;22.50;;;;;3.31;66.34;99962.47;5054856;28;45506;-57
2022/12/09 07:15:08;;;;;;;;;26.75;24.25;;;;;3.27;66.12;99963.88;5060590;28;45939;-58
2022/12/09 07:17:34;;;;;;;;;28.80;25.80;;;;;3.38;66.55;99978.88;5074563;28;45428;-55
2022/12/09 07:19:59;;;;;;;;;30.75;26.50;;;;;3.43;66.33;99976.44;5074943;27;45768;-57
2022/12/09 07:22:25;;;;;;;;;32.50;27.00;;;;;3.37;66.36;99985.31;5074906;27;45290;-58
2022/12/09 07:24:50;;;;;;;;;30.00;24.25;;;;;3.28;66.43;99984.53;5074515;27;45929;-57
2022/12/09 07:27:16;;;;;;;;;20.75;20.50;;;;;3.01;66.23;99956.13;5074798;27;45442;-58
2022/12/09 07:29:41;;;;;;;;;33.75;29.25;;;;;2.98;65.66;99962.72;5074732;27;45560;-59
2022/12/09 07:32:10;;;;;;;;;23.00;20.25;;;;;2.98;66.18;99966.31;5074858;27;45546;-58
2022/12/09 07:34:36;;;;;;;;;18.80;17.20;;;;;3.11;66.34;99995.50;5074361;27;45468;-58
2022/12/09 07:37:02;;;;;;;;;25.60;21.00;;;;;3.06;66.26;99989.81;5074618;27;45328;-58
2022/12/09 07:39:27;;;;;;;;;25.00;21.00;;;;;3.10;66.32;99993.81;5073663;28;45442;-59
2022/12/09 07:41:55;;;;;;;;;23.75;21.75;;;;;3.10;66.25;99991.13;5074505;28;45787;-58
2022/12/09 07:44:20;;;;;;;;;25.25;22.00;;;;;3.11;66.35;99991.97;5073736;27;45424;-58
2022/12/09 07:46:46;;;;;;;;;30.50;24.75;;;;;3.11;66.60;99984.66;5073560;28;45451;-58
2022/12/09 07:49:12;;;;;;;;;26.00;21.75;;;;;2.86;66.54;99951.47;5078082;27;45386;-59
2022/12/09 07:51:37;;;;;;;;;29.50;27.00;;;;;3.19;65.97;100000.03;5078098;27;45330;-60
2022/12/09 07:54:03;;;;;;;;;26.00;22.00;;;;;3.10;65.96;99982.97;5077752;27;45305;-58
2022/12/09 07:56:28;;;;;;;;;23.00;20.50;;;;;3.13;66.00;99994.50;5076105;28;45622;-58
2022/12/09 07:58:55;;;;;;;;;27.50;21.50;;;;;2.55;65.34;99923.41;5076182;28;45392;-59
2022/12/09 08:01:24;;;;;;;;;27.50;21.00;;;;;2.98;65.89;100000.69;5077943;27;45641;-58
2022/12/09 08:03:49;;;;;;;;;28.20;22.60;;;;;3.06;65.62;100010.66;5076269;28;45608;-55
2022/12/09 08:06:17;;;;;;;;;26.00;22.75;;;;;3.01;65.68;99992.22;5077586;27;45503;-58
2022/12/09 08:08:42;;;;;;;;;36.80;26.40;;;;;3.08;65.51;100006.72;5059797;28;45496;-56
2022/12/09 08:11:10;;;;;;;;;28.50;24.50;;;;;3.08;65.57;100011.31;5059442;28;45602;-60
2022/12/09 08:13:35;;;;;;;;;26.00;22.80;;;;;3.12;66.35;100001.78;5077373;28;45764;-59
2022/12/09 08:16:05;;;;;;;;;20.00;15.25;;;;;3.14;65.89;100001.63;5077030;27;45296;-60
2022/12/09 08:18:31;;;;;;;;;27.00;24.80;;;;;3.15;66.03;99989.75;5077606;27;45379;-60
2022/12/09 08:20:57;;;;;;;;;36.75;31.25;;;;;3.24;64.96;99997.63;5077138;27;45816;-60
2022/12/09 08:23:22;;;;;;;;;26.50;24.00;;;;;3.17;65.50;99993.97;5077133;27;45654;-59
2022/12/09 08:25:54;;;;;;;;;35.00;25.00;;;;;3.20;65.93;100000.91;5077066;27;45334;-57
2022/12/09 08:28:20;;;;;;;;;29.40;25.60;;;;;3.06;65.62;99962.69;5077357;27;45403;-57
2022/12/09 08:30:46;;;;;;;;;26.50;25.00;;;;;3.05;65.07;99965.59;5077544;27;45494;-56
2022/12/09 08:33:11;;;;;;;;;23.75;20.75;;;;;3.20;65.15;100001.72;5075514;28;45537;-57
2022/12/09 08:35:37;;;;;;;;;23.75;21.00;;;;;3.20;65.19;100006.31;5092491;27;45382;-58
2022/12/09 08:38:02;;;;;;;;;25.00;23.75;;;;;3.19;65.63;100004.59;5076076;28;45433;-59
2022/12/09 08:40:28;;;;;;;;;37.00;29.25;;;;;3.01;65.76;99966.97;5077242;27;45216;-58
2022/12/09 08:42:54;;;;;;;;;27.25;25.75;;;;;3.25;65.17;100007.44;5076785;27;45640;-58
2022/12/09 08:45:19;;;;;;;;;28.50;24.25;;;;;3.31;64.88;100014.00;5076868;27;45838;-59
2022/12/09 08:47:45;;;;;;;;;36.75;26.75;;;;;3.31;65.53;100008.56;5076923;27;45363;-59
2022/12/09 08:50:10;;;;;;;;;33.00;24.50;;;;;3.33;65.41;100009.25;5092764;27;45376;-59
2022/12/09 08:52:36;;;;;;;;;35.00;30.50;;;;;3.43;65.24;100013.56;5092570;27;45633;-59
2022/12/09 08:55:01;;;;;;;;;33.00;24.75;;;;;3.23;64.87;99974.25;5076777;27;45393;-59
2022/12/09 08:57:27;;;;;;;;;33.50;32.25;;;;;3.45;65.15;100006.94;5075478;28;45360;-57
2022/12/09 08:59:52;;;;;;;;;29.50;26.00;;;;;3.32;65.17;99994.00;5074804;28;45642;-57
2022/12/09 09:02:18;;;;;;;;;28.00;23.50;;;;;3.52;65.17;100018.75;5045814;27;46063;-59
2022/12/09 09:04:44;;;;;;;;;30.50;24.75;;;;;3.53;64.80;100014.19;5016708;28;45692;-55
2022/12/09 09:07:11;;;;;;;;;35.40;33.20;;;;;3.51;64.66;100025.22;5055997;28;45362;-56
2022/12/09 09:09:36;;;;;;;;;38.25;29.50;;;;;3.55;65.27;100016.69;5057072;28;45946;-59
2022/12/09 09:12:02;;;;;;;;;38.50;32.00;;;;;3.31;64.60;99975.19;5054817;28;46294;-55
2022/12/09 09:14:28;;;;;;;;;38.00;30.00;;;;;3.46;64.53;100019.47;5055046;28;45441;-53
2022/12/09 09:16:53;;;;;;;;;32.00;29.00;;;;;3.47;64.93;100018.44;5035376;28;45375;-56
2022/12/09 09:19:20;;;;;;;;;34.75;26.75;;;;;3.12;65.15;99958.41;5036146;28;45373;-55
2022/12/09 09:21:46;;;;;;;;;34.50;27.00;;;;;3.33;64.44;99975.84;5034764;28;46160;-54
2022/12/09 09:24:14;;;;;;;;;31.50;24.75;;;;;3.63;65.10;100019.34;5035313;28;45381;-52
2022/12/09 09:26:41;;;;;;;;;35.50;34.00;;;;;3.63;64.06;100022.88;5035562;28;45365;-58
2022/12/09 09:29:07;;;;;;;;;37.00;29.50;;;;;3.61;64.94;100024.94;5036058;28;45563;-59
2022/12/09 09:31:33;;;;;;;;;37.75;31.25;;;;;3.66;65.10;100024.41;5034258;28;46557;-57
2022/12/09 09:33:58;;;;;;;;;37.40;32.60;;;;;3.36;64.44;99975.50;5034138;28;45455;-56
2022/12/09 09:36:24;;;;;;;;;46.50;38.75;;;;;3.62;64.59;100028.50;5035851;28;45364;-57
2022/12/09 09:38:52;;;;;;;;;35.50;31.00;;;;;3.57;64.81;100022.78;5036253;28;45349;-58
2022/12/09 09:41:46;;;;;;;;;33.60;27.60;;;;;3.58;64.97;100025.31;5035446;28;46078;-60
2022/12/09 09:44:39;;;;;;;;;36.00;30.40;;;;;3.59;64.40;100027.00;5030934;28;45372;-59
2022/12/09 09:47:35;;;;;;;;;31.40;30.00;;;;;3.61;64.94;100027.66;5033921;28;45423;-59
2022/12/09 09:50:31;;;;;;;;;38.00;30.00;;;;;3.65;64.61;100025.44;5036159;28;45551;-59
2022/12/09 09:52:56;;;;;;;;;47.50;36.50;;;;;3.63;64.66;100020.16;5028863;28;45918;-60
2022/12/09 09:55:33;;;;;;;;;40.00;37.50;;;;;3.71;64.87;100032.84;5034246;28;45360;-59
2022/12/09 09:58:19;;;;;;;;;50.75;36.75;;;;;3.72;64.31;100034.53;5035729;28;45439;-59
2022/12/09 10:00:50;;;;;;;;;37.75;31.00;;;;;3.73;64.90;100021.81;5028422;28;45639;-61
2022/12/09 10:03:26;;;;;;;;;37.25;33.50;;;;;3.76;64.67;100022.28;5045928;28;46184;-59
2022/12/09 10:05:52;;;;;;;;;42.20;35.20;;;;;3.71;64.18;100002.13;5053479;28;45320;-59
2022/12/09 10:09:08;;;;;;;;;40.20;36.00;;;;;3.64;64.04;99981.16;5054389;28;45275;-57
2022/12/09 10:11:59;;;;;;;;;38.75;35.00;;;;;3.84;64.28;100017.78;5020044;28;45529;-59
2022/12/09 10:14:28;;;;;;;;;42.25;33.25;;;;;3.78;64.35;100013.91;5045720;28;46308;-58
2022/12/09 10:17:13;;;;;;;;;42.40;36.40;;;;;3.55;64.23;99971.41;5035091;28;45589;-58
2022/12/09 10:19:47;;;;;;;;;46.75;39.50;;;;;3.84;63.93;100009.66;5035584;28;45386;-58
2022/12/09 10:22:18;;;;;;;;;40.00;33.75;;;;;3.84;64.42;100002.31;5049688;28;45507;-58
2022/12/09 10:24:54;;;;;;;;;50.50;39.25;;;;;3.90;64.71;100004.28;5015709;28;46623;-56
2022/12/09 10:27:26;;;;;;;;;44.80;38.80;;;;;3.89;64.41;99999.91;5033747;28;45310;-54
2022/12/09 10:29:57;;;;;;;;;49.00;42.00;;;;;3.96;64.28;99993.72;5032901;28;45777;-54
2022/12/09 10:32:25;;;;;;;;;47.00;39.25;;;;;4.04;64.14;100002.63;5054289;28;45412;-54
2022/12/09 10:34:52;;;;;;;;;42.75;38.25;;;;;3.31;63.63;99878.38;5048878;28;46616;-54
2022/12/09 10:37:34;;;;;;;;;45.00;37.00;;;;;4.09;63.66;99985.75;5033739;28;45465;-56
2022/12/09 10:40:06;;;;;;;;;44.25;37.00;;;;;4.16;63.05;99991.31;5019046;28;45523;-59
2022/12/09 10:45:21;;;;;;;;;35.25;29.25;;;;;4.34;62.52;99988.19;5051209;28;45838;-59
2022/12/09 10:47:51;;;;;;;;;37.50;34.00;;;;;4.20;63.65;99969.00;5051284;28;45712;-52
2022/12/09 10:50:33;;;;;;;;;41.00;35.80;;;;;4.25;63.15;99960.28;5051291;28;45710;-55
2022/12/09 10:53:14;;;;;;;;;40.75;37.25;;;;;4.30;62.99;99965.13;5050883;28;45545;-57
2022/12/09 10:55:40;;;;;;;;;48.50;40.25;;;;;4.17;63.00;99927.78;5032256;28;46148;-53
2022/12/09 10:58:18;;;;;;;;;45.20;40.20;;;;;4.33;62.22;99943.03;5030289;28;45450;-56
2022/12/09 11:01:06;;;;;;;;;49.75;41.25;;;;;4.71;61.89;99974.59;5046480;28;45892;-49
2022/12/09 11:03:39;;;;;;;;;47.00;34.75;;;;;4.61;62.45;99975.75;5052338;28;45317;-53
2022/12/09 11:06:28;;;;;;;;;36.25;32.50;;;;;4.53;62.28;99972.31;5051816;28;46542;-55
2022/12/09 11:09:00;;;;;;;;;46.20;39.20;;;;;4.37;62.92;99952.47;5032755;28;45501;-52
2022/12/09 11:11:42;;;;;;;;;47.00;39.50;;;;;3.86;63.13;99883.53;5026160;28;45705;-55
2022/12/09 11:14:29;;;;;;;;;47.75;40.50;;;;;3.96;63.21;99904.13;5030968;28;45893;-56
2022/12/09 11:16:57;;;;;;;;;48.00;39.50;;;;;4.44;63.07;99966.97;5033637;28;45372;-51
2022/12/09 11:19:36;;;;;;;;;45.20;37.60;;;;;4.29;62.83;99942.56;5033890;28;46215;-55
2022/12/09 11:22:23;;;;;;;;;42.50;36.75;;;;;4.56;62.59;99963.78;5034569;28;45458;-54
2022/12/09 11:24:50;;;;;;;;;39.75;32.00;;;;;5.60;60.46;99955.31;5054085;28;45629;-53
2022/12/09 11:27:32;;;;;;;;;49.50;39.25;;;;;9.44;53.99;99900.34;5051097;28;45486;-57
2022/12/09 11:30:27;;;;;;;;;47.80;39.80;;;;;14.14;43.96;99922.38;5045283;28;45795;-54
2022/12/09 11:33:01;;;;;;;;;27.60;23.20;;;;;14.11;40.02;99898.88;4980234;28;45523;-56